Hlavní strana
METAR-TAF:

METAR-TAF

Letiště :

Hickory, Severní Karolína, Spojené státy americké

zeměpisná šířka: 35-44-32N, zeměpisná délka: 081-22-56W, výška: 362 m

Aktuální stav počasí

Zpráva byla vytvořena před 16 minutami, v 10:53 UTC
Bezvětří
Teplota 20°C
Vlhkost vzduchu 88%
Tlak 1021 hPa
Viditelnost: 16.1 km
Jasno

METAR: KHKY 261053Z 00000KT 10SM CLR 20/18 A3014 RMK AO2 SLP184 T02000183 $

Čas: 07:09 (11:09 UTC)

Předpověď počasí

Zpráva byla vytvořena před 5 hodinami a 39 minutami, v 05:30 UTC
Předpověď platná od 26 v 06 UTC do 27 v 06 UTC
vítr z různých směrů 3 kt
Viditelnost: 10 km
Skoro jasno ve výšce 25000 ft
Od 26 v 1400 UTC
Západní vítr 5 kt
Viditelnost: 10 km
Skoro jasno ve výšce 25000 ft
Od 26 v 1800 UTC
Západojihozápadní vítr 6 kt
Viditelnost: 10 km
Skoro jasno ve výšce 6000 ft
Od 27 v 0300 UTC
Západní vítr 3 kt
Viditelnost: 10 km
Skoro jasno ve výšce 25000 ft

TAF: KHKY 260530Z 2606/2706 VRB03KT P6SM FEW250 FM261400 28005KT P6SM FEW250 FM261800 25006KT P6SM FEW060 FM270300 26003KT P6SM FEW250

Stav a předpovědi počasí z více než 4 000 letišť (zprávy METAR a TAF).

Červené a žluté tečky na mapě představují dostupné meteorologické stanice.

Když kurzor umístíte na tečku, zobrazí se název stanice.

Pak kliknutím zobrazíte stav a předpověď počasí.

Chcete-li změnit mapu, kliknutím na zelené tlačítko se znaménkem +mapu přiblížíte, kliknutím na zelené tlačítko se znaménkem – mapu oddálíte a kliknutím na zelené šipky přejdete na sousední mapy.


METAR-TAF: